createdAt,value
2017-12-15T00:00:53.210Z,0
2017-12-15T00:02:03.152Z,0
2017-12-15T00:03:12.622Z,0
2017-12-15T00:04:22.576Z,0
2017-12-15T00:05:32.287Z,0
2017-12-15T00:06:42.258Z,0
2017-12-15T00:07:51.944Z,0
2017-12-15T00:09:01.899Z,0
2017-12-15T00:10:11.638Z,0
2017-12-15T00:11:21.590Z,0
2017-12-15T00:12:31.008Z,0
2017-12-15T00:13:40.488Z,0
2017-12-15T00:14:50.176Z,0
2017-12-15T00:16:00.124Z,0
2017-12-15T00:17:09.814Z,0
2017-12-15T00:18:19.763Z,0
2017-12-15T00:19:29.711Z,0
2017-12-15T00:20:39.409Z,0
2017-12-15T00:21:48.834Z,0
2017-12-15T00:22:58.529Z,0
2017-12-15T00:24:08.466Z,0
2017-12-15T00:25:18.156Z,0
2017-12-15T00:26:27.872Z,0
2017-12-15T00:27:37.815Z,0
2017-12-15T00:28:47.754Z,0
2017-12-15T00:29:57.696Z,0
2017-12-15T00:31:07.119Z,0
2017-12-15T00:32:16.809Z,0
2017-12-15T00:33:26.490Z,0
2017-12-15T00:34:36.441Z,0
2017-12-15T00:35:46.135Z,0
2017-12-15T00:36:55.816Z,0
2017-12-15T00:38:05.759Z,0
2017-12-15T00:39:15.443Z,0
2017-12-15T00:40:25.401Z,0
2017-12-15T00:41:35.339Z,0
2017-12-15T00:42:45.021Z,0
2017-12-15T00:43:54.976Z,0
2017-12-15T00:45:04.415Z,0
2017-12-15T00:46:14.106Z,0
2017-12-15T00:47:23.812Z,0
2017-12-15T00:48:33.754Z,0
2017-12-15T00:49:43.442Z,0
2017-12-15T00:50:52.872Z,0
2017-12-15T00:52:02.563Z,0
2017-12-15T00:53:12.518Z,0
2017-12-15T00:54:22.459Z,0
2017-12-15T00:55:32.145Z,0
2017-12-15T00:56:41.588Z,0
2017-12-15T00:57:51.017Z,0
2017-12-15T00:59:00.694Z,0
2017-12-15T01:00:10.634Z,0
2017-12-15T01:01:20.579Z,0
2017-12-15T01:02:30.532Z,0
2017-12-15T01:03:40.222Z,0
2017-12-15T01:04:49.646Z,0
2017-12-15T01:05:59.333Z,0
2017-12-15T01:07:08.762Z,0
2017-12-15T01:08:18.192Z,0
2017-12-15T01:09:27.878Z,0
2017-12-15T01:10:37.305Z,0
2017-12-15T01:11:46.739Z,0
2017-12-15T01:12:56.162Z,0
2017-12-15T01:14:06.116Z,0
2017-12-15T01:15:15.796Z,0
2017-12-15T01:16:25.753Z,0
2017-12-15T01:17:35.708Z,0
2017-12-15T01:18:45.664Z,0
2017-12-15T01:19:55.618Z,0
2017-12-15T01:21:05.559Z,0
2017-12-15T01:22:15.316Z,0
2017-12-15T01:23:25.270Z,0
2017-12-15T01:24:34.961Z,0
2017-12-15T01:25:44.140Z,0
2017-12-15T01:26:53.319Z,0
2017-12-15T01:28:02.997Z,0
2017-12-15T01:29:12.689Z,0
2017-12-15T01:30:22.623Z,0
2017-12-15T01:31:32.578Z,0
2017-12-15T01:32:42.525Z,0
2017-12-15T01:33:52.412Z,0
2017-12-15T01:35:02.094Z,0
2017-12-15T01:36:11.262Z,0
2017-12-15T01:37:21.211Z,0
2017-12-15T01:38:31.151Z,0
2017-12-15T01:39:40.843Z,0
2017-12-15T01:40:50.526Z,0
2017-12-15T01:42:00.218Z,0
2017-12-15T01:43:10.160Z,0
2017-12-15T01:44:19.586Z,0
2017-12-15T01:45:29.525Z,0
2017-12-15T01:46:39.219Z,0
2017-12-15T01:47:48.906Z,0
2017-12-15T01:48:58.326Z,0
2017-12-15T01:50:08.041Z,0
2017-12-15T01:51:17.725Z,0
2017-12-15T01:52:27.684Z,0
2017-12-15T01:53:37.116Z,0
2017-12-15T01:54:46.813Z,0
2017-12-15T01:55:56.762Z,0
2017-12-15T01:57:06.453Z,0
2017-12-15T01:58:16.158Z,0
2017-12-15T01:59:26.121Z,0
2017-12-15T02:00:36.063Z,0
2017-12-15T02:01:45.494Z,0
2017-12-15T02:02:55.235Z,0
2017-12-15T02:04:05.168Z,0
2017-12-15T02:05:15.113Z,0
2017-12-15T02:06:25.058Z,0
2017-12-15T02:07:35.048Z,0
2017-12-15T02:08:44.489Z,0
2017-12-15T02:09:53.662Z,0
2017-12-15T02:11:03.340Z,0
2017-12-15T02:12:13.291Z,0
2017-12-15T02:13:22.991Z,0
2017-12-15T02:14:32.682Z,0
2017-12-15T02:15:42.370Z,0
2017-12-15T02:16:52.314Z,0
2017-12-15T02:18:02.001Z,0
2017-12-15T02:19:11.680Z,0
2017-12-15T02:20:21.375Z,0
2017-12-15T02:21:31.318Z,0
2017-12-15T02:22:41.006Z,0
2017-12-15T02:23:50.677Z,0
2017-12-15T02:25:00.353Z,0
2017-12-15T02:26:10.344Z,0
2017-12-15T02:27:19.773Z,0
2017-12-15T02:28:29.718Z,0
2017-12-15T02:29:39.664Z,0
2017-12-15T02:30:48.842Z,0
2017-12-15T02:31:58.274Z,0
2017-12-15T02:33:07.964Z,0
2017-12-15T02:34:17.665Z,0
2017-12-15T02:35:27.640Z,0
2017-12-15T02:36:37.344Z,0
2017-12-15T02:37:47.027Z,0
2017-12-15T02:38:56.463Z,0
2017-12-15T02:40:05.650Z,0
2017-12-15T02:41:15.077Z,0
2017-12-15T02:42:24.753Z,0
2017-12-15T02:43:34.439Z,0
2017-12-15T02:44:44.132Z,0
2017-12-15T02:45:54.082Z,0
2017-12-15T02:47:04.029Z,0
2017-12-15T02:48:13.457Z,0
2017-12-15T02:49:23.406Z,0
2017-12-15T02:50:33.098Z,0
2017-12-15T02:51:42.796Z,0
2017-12-15T02:52:52.762Z,0
2017-12-15T02:54:02.444Z,0
2017-12-15T02:55:11.886Z,0
2017-12-15T02:56:21.577Z,0
2017-12-15T02:57:31.518Z,0
2017-12-15T02:58:41.463Z,0
2017-12-15T02:59:51.402Z,0
2017-12-15T03:01:01.117Z,0
2017-12-15T03:02:11.076Z,0
2017-12-15T03:03:20.764Z,0
2017-12-15T03:04:30.697Z,0
2017-12-15T03:05:40.647Z,0
2017-12-15T03:06:50.592Z,0
2017-12-15T03:08:00.281Z,0
2017-12-15T03:09:09.690Z,0
2017-12-15T03:10:19.115Z,0
2017-12-15T03:11:28.792Z,0
2017-12-15T03:12:38.727Z,0
2017-12-15T03:13:48.669Z,0
2017-12-15T03:14:58.608Z,0
2017-12-15T03:16:08.745Z,0
2017-12-15T03:17:18.198Z,0
2017-12-15T03:18:27.914Z,0
2017-12-15T03:19:37.906Z,0
2017-12-15T03:20:47.904Z,0
2017-12-15T03:21:58.273Z,0
2017-12-15T03:23:08.340Z,0
2017-12-15T03:24:18.096Z,0
2017-12-15T03:25:27.788Z,0
2017-12-15T03:26:37.487Z,0
2017-12-15T03:27:47.419Z,0
2017-12-15T03:28:57.359Z,0
2017-12-15T03:30:07.063Z,0
2017-12-15T03:31:17.034Z,0
2017-12-15T03:32:27.015Z,0
2017-12-15T03:33:36.702Z,0
2017-12-15T03:34:46.388Z,0
2017-12-15T03:35:56.326Z,0
2017-12-15T03:37:06.256Z,0
2017-12-15T03:38:16.198Z,0
2017-12-15T03:39:26.182Z,0
2017-12-15T03:40:35.873Z,0
2017-12-15T03:41:45.561Z,0
2017-12-15T03:42:55.238Z,0
2017-12-15T03:44:04.662Z,0
2017-12-15T03:45:14.597Z,0
2017-12-15T03:46:24.025Z,0
2017-12-15T03:47:33.704Z,0
2017-12-15T03:48:43.666Z,0
2017-12-15T03:49:53.344Z,0
2017-12-15T03:51:03.027Z,0
2017-12-15T03:52:12.987Z,0
2017-12-15T03:53:22.926Z,0
2017-12-15T03:54:32.357Z,0
2017-12-15T03:55:42.296Z,0
2017-12-15T03:56:52.348Z,0
2017-12-15T03:58:02.293Z,0
2017-12-15T03:59:11.968Z,0
2017-12-15T04:00:21.395Z,0
2017-12-15T04:01:31.075Z,0
2017-12-15T04:02:40.780Z,0
2017-12-15T04:03:50.775Z,0
2017-12-15T04:05:00.513Z,0
2017-12-15T04:06:10.472Z,0
2017-12-15T04:07:20.156Z,0
2017-12-15T04:08:29.852Z,0
2017-12-15T04:09:39.273Z,0
2017-12-15T04:10:48.440Z,0
2017-12-15T04:11:58.379Z,0
2017-12-15T04:13:08.332Z,0
2017-12-15T04:14:18.030Z,0
2017-12-15T04:15:27.453Z,0
2017-12-15T04:16:37.136Z,0
2017-12-15T04:17:46.821Z,0
2017-12-15T04:18:56.508Z,0
2017-12-15T04:20:06.202Z,0
2017-12-15T04:21:16.153Z,0
2017-12-15T04:22:25.578Z,0
2017-12-15T04:23:35.007Z,0
2017-12-15T04:24:44.945Z,0
2017-12-15T04:25:54.883Z,0
2017-12-15T04:27:04.564Z,0
2017-12-15T04:28:13.999Z,0
2017-12-15T04:29:23.934Z,0
2017-12-15T04:30:33.615Z,0
2017-12-15T04:31:43.304Z,0
2017-12-15T04:32:52.470Z,0
2017-12-15T04:34:02.404Z,0
2017-12-15T04:35:11.831Z,0
2017-12-15T04:36:21.774Z,0
2017-12-15T04:37:31.208Z,0
2017-12-15T04:38:40.895Z,0
2017-12-15T04:39:50.578Z,0
2017-12-15T04:41:00.515Z,0
2017-12-15T04:42:10.517Z,0
2017-12-15T04:43:19.635Z,0
2017-12-15T04:44:29.061Z,0
2017-12-15T04:45:39.001Z,0
2017-12-15T04:46:48.945Z,0
2017-12-15T04:47:58.899Z,0
2017-12-15T04:49:08.844Z,0
2017-12-15T04:50:18.562Z,0
2017-12-15T04:51:28.513Z,0
2017-12-15T04:52:38.452Z,0
2017-12-15T04:53:47.630Z,0
2017-12-15T04:54:57.563Z,0
2017-12-15T04:56:07.254Z,0
2017-12-15T04:57:17.202Z,0
2017-12-15T04:58:26.905Z,0
2017-12-15T04:59:36.589Z,0
2017-12-15T05:00:46.527Z,0
2017-12-15T05:01:56.479Z,0
2017-12-15T05:03:06.166Z,0
2017-12-15T05:04:15.861Z,0
2017-12-15T05:05:25.554Z,0
2017-12-15T05:06:35.491Z,0
2017-12-15T05:07:45.425Z,0
2017-12-15T05:08:55.121Z,0
2017-12-15T05:10:05.064Z,0
2017-12-15T05:11:15.000Z,0
2017-12-15T05:12:24.937Z,0
2017-12-15T05:13:34.632Z,0
2017-12-15T05:14:44.570Z,0
2017-12-15T05:15:54.264Z,0
2017-12-15T05:17:04.207Z,0
2017-12-15T05:18:14.159Z,0
2017-12-15T05:19:24.095Z,0
2017-12-15T05:20:33.794Z,0
2017-12-15T05:21:43.738Z,0
2017-12-15T05:22:52.903Z,0
2017-12-15T05:24:02.581Z,0
2017-12-15T05:25:12.003Z,0
2017-12-15T05:26:21.692Z,0
2017-12-15T05:27:31.124Z,0
2017-12-15T05:28:40.811Z,0
2017-12-15T05:29:50.767Z,0
2017-12-15T05:31:00.722Z,0
2017-12-15T05:32:10.696Z,0
2017-12-15T05:33:20.406Z,0
2017-12-15T05:34:30.122Z,0
2017-12-15T05:35:39.826Z,0
2017-12-15T05:36:49.794Z,0
2017-12-15T05:37:59.501Z,0
2017-12-15T05:39:09.492Z,0
2017-12-15T05:40:19.178Z,0
2017-12-15T05:41:29.119Z,0
2017-12-15T05:42:39.064Z,0
2017-12-15T05:43:48.497Z,0
2017-12-15T05:44:58.229Z,0
2017-12-15T05:46:08.162Z,0
2017-12-15T05:47:17.339Z,0
2017-12-15T05:48:27.298Z,0
2017-12-15T05:49:36.485Z,0
2017-12-15T05:50:46.159Z,0
2017-12-15T05:51:56.120Z,0
2017-12-15T05:53:05.558Z,0
2017-12-15T05:54:15.518Z,0
2017-12-15T05:55:25.211Z,0
2017-12-15T05:56:34.636Z,0
2017-12-15T05:57:43.808Z,0
2017-12-15T05:58:53.757Z,0
2017-12-15T06:00:03.718Z,0
2017-12-15T06:01:13.414Z,0
2017-12-15T06:02:22.595Z,0
2017-12-15T06:03:32.035Z,0
2017-12-15T06:04:41.728Z,0
2017-12-15T06:05:51.682Z,0
2017-12-15T06:07:01.631Z,0
2017-12-15T06:08:11.670Z,0
2017-12-15T06:09:21.611Z,0
2017-12-15T06:10:31.294Z,0
2017-12-15T06:11:40.984Z,0
2017-12-15T06:12:50.418Z,0
2017-12-15T06:13:59.856Z,0
2017-12-15T06:15:09.801Z,0
2017-12-15T06:16:19.507Z,0
2017-12-15T06:17:29.184Z,0
2017-12-15T06:18:38.869Z,0
2017-12-15T06:19:48.553Z,0
2017-12-15T06:20:58.500Z,0
2017-12-15T06:22:08.186Z,0
2017-12-15T06:23:17.614Z,0
2017-12-15T06:24:27.562Z,0
2017-12-15T06:25:37.248Z,0
2017-12-15T06:26:47.200Z,0
2017-12-15T06:27:57.137Z,0
2017-12-15T06:29:06.825Z,0
2017-12-15T06:30:16.504Z,0
2017-12-15T06:31:26.447Z,0
2017-12-15T06:32:36.391Z,0
2017-12-15T06:33:46.331Z,0
2017-12-15T06:34:56.287Z,0
2017-12-15T06:36:06.231Z,0
2017-12-15T06:37:16.186Z,0
2017-12-15T06:38:25.866Z,0
2017-12-15T06:39:35.309Z,0
2017-12-15T06:40:44.992Z,0
2017-12-15T06:41:54.677Z,0
2017-12-15T06:43:04.639Z,0
2017-12-15T06:44:14.334Z,0
2017-12-15T06:45:24.276Z,0
2017-12-15T06:46:33.972Z,0
2017-12-15T06:47:43.958Z,0
2017-12-15T06:48:53.412Z,0
2017-12-15T06:50:03.357Z,0
2017-12-15T06:51:13.045Z,0
2017-12-15T06:52:22.730Z,0
2017-12-15T06:53:32.686Z,0
2017-12-15T06:54:42.391Z,0
2017-12-15T06:55:52.339Z,0
2017-12-15T06:57:02.026Z,0
2017-12-15T06:58:11.463Z,0
2017-12-15T06:59:21.409Z,0
2017-12-15T07:00:31.362Z,0
2017-12-15T07:01:41.320Z,5
2017-12-15T07:02:51.000Z,5
2017-12-15T07:04:00.550Z,5
2017-12-15T07:05:10.351Z,5
2017-12-15T07:06:20.419Z,5
2017-12-15T07:07:30.447Z,5
2017-12-15T07:08:40.175Z,5
2017-12-15T07:09:50.134Z,5
2017-12-15T07:10:59.841Z,5
2017-12-15T07:12:09.608Z,5
2017-12-15T07:13:19.363Z,10
2017-12-15T07:14:29.057Z,10
2017-12-15T07:15:39.025Z,10
2017-12-15T07:16:48.992Z,10
2017-12-15T07:17:58.698Z,10
2017-12-15T07:19:08.748Z,10
2017-12-15T07:20:18.449Z,10
2017-12-15T07:21:28.421Z,10
2017-12-15T07:22:38.131Z,10
2017-12-15T07:23:48.217Z,10
2017-12-15T07:24:57.915Z,15
2017-12-15T07:26:07.877Z,15
2017-12-15T07:27:17.323Z,15
2017-12-15T07:28:27.308Z,15
2017-12-15T07:29:37.085Z,15
2017-12-15T07:30:46.792Z,15
2017-12-15T07:31:56.509Z,15
2017-12-15T07:33:05.962Z,20
2017-12-15T07:34:15.686Z,20
2017-12-15T07:35:25.661Z,20
2017-12-15T07:36:35.364Z,20
2017-12-15T07:37:44.849Z,20
2017-12-15T07:38:54.551Z,25
2017-12-15T07:40:04.499Z,25
2017-12-15T07:41:13.936Z,25
2017-12-15T07:42:23.646Z,30
2017-12-15T07:43:33.602Z,30
2017-12-15T07:44:43.437Z,35
2017-12-15T07:45:53.528Z,35
2017-12-15T07:47:03.308Z,35
2017-12-15T07:48:13.332Z,35
2017-12-15T07:49:23.299Z,40
2017-12-15T07:50:32.762Z,40
2017-12-15T07:51:42.730Z,40
2017-12-15T07:52:52.442Z,40
2017-12-15T07:54:02.140Z,40
2017-12-15T07:55:12.166Z,40
2017-12-15T07:56:21.336Z,40
2017-12-15T07:57:31.030Z,40
2017-12-15T07:58:40.238Z,40
2017-12-15T07:59:49.928Z,40
2017-12-15T08:00:59.704Z,45
2017-12-15T08:02:09.163Z,45
2017-12-15T08:03:18.870Z,45
2017-12-15T08:04:28.838Z,45
2017-12-15T08:05:38.630Z,45
2017-12-15T08:06:48.350Z,50
2017-12-15T08:07:58.317Z,55
2017-12-15T08:09:08.016Z,60
2017-12-15T08:10:17.721Z,60
2017-12-15T08:11:27.439Z,60
2017-12-15T08:12:37.147Z,65
2017-12-15T08:13:46.859Z,65
2017-12-15T08:14:56.830Z,65
2017-12-15T08:16:06.577Z,70
2017-12-15T08:17:16.313Z,75
2017-12-15T08:18:26.374Z,80
2017-12-15T08:19:36.161Z,80
2017-12-15T08:20:46.227Z,80
2017-12-15T08:21:55.949Z,80
2017-12-15T08:23:05.377Z,80
2017-12-15T08:24:15.345Z,85
2017-12-15T08:25:25.320Z,85
2017-12-15T08:26:34.777Z,85
2017-12-15T08:27:44.750Z,85
2017-12-15T08:28:54.459Z,85
2017-12-15T08:30:04.145Z,85
2017-12-15T08:31:13.585Z,80
2017-12-15T08:32:23.057Z,80
2017-12-15T08:33:33.002Z,80
2017-12-15T08:34:42.964Z,80
2017-12-15T08:35:52.666Z,80
2017-12-15T08:37:02.357Z,80
2017-12-15T08:38:11.848Z,80
2017-12-15T08:39:21.539Z,80
2017-12-15T08:40:31.249Z,85
2017-12-15T08:41:41.191Z,85
2017-12-15T08:42:50.887Z,90
2017-12-15T08:44:00.869Z,95
2017-12-15T08:45:10.895Z,95
2017-12-15T08:46:20.068Z,95
2017-12-15T08:47:29.497Z,100
2017-12-15T08:48:39.438Z,100
2017-12-15T08:49:49.126Z,105
2017-12-15T08:50:58.818Z,105
2017-12-15T08:52:08.796Z,105
2017-12-15T08:53:18.248Z,105
2017-12-15T08:54:27.961Z,105
2017-12-15T08:55:37.916Z,110
2017-12-15T08:56:47.345Z,115
2017-12-15T08:57:57.030Z,125
2017-12-15T08:59:06.458Z,135
2017-12-15T09:00:16.400Z,140
2017-12-15T09:01:26.103Z,145
2017-12-15T09:02:36.058Z,145
2017-12-15T09:03:45.746Z,135
2017-12-15T09:04:54.963Z,130
2017-12-15T09:06:04.913Z,130
2017-12-15T09:07:14.613Z,135
2017-12-15T09:08:24.821Z,145
2017-12-15T09:09:34.794Z,160
2017-12-15T09:10:44.545Z,170
2017-12-15T09:11:54.514Z,170
2017-12-15T09:13:04.537Z,160
2017-12-15T09:14:14.235Z,140
2017-12-15T09:15:23.685Z,130
2017-12-15T09:16:33.647Z,125
2017-12-15T09:17:43.335Z,120
2017-12-15T09:18:53.041Z,125
2017-12-15T09:20:02.480Z,125
2017-12-15T09:21:12.191Z,125
2017-12-15T09:22:21.893Z,125
2017-12-15T09:23:31.884Z,115
2017-12-15T09:24:41.583Z,110
2017-12-15T09:25:51.588Z,100
2017-12-15T09:27:01.018Z,95
2017-12-15T09:28:11.001Z,90
2017-12-15T09:29:20.479Z,90
2017-12-15T09:30:29.933Z,90
2017-12-15T09:31:39.639Z,90
2017-12-15T09:32:49.633Z,90
2017-12-15T09:33:59.591Z,95
2017-12-15T09:35:09.280Z,90
2017-12-15T09:36:18.697Z,90
2017-12-15T09:37:28.609Z,85
2017-12-15T09:38:38.347Z,80
2017-12-15T09:39:47.805Z,75
2017-12-15T09:40:57.772Z,75
2017-12-15T09:42:07.987Z,75
2017-12-15T09:43:17.679Z,80
2017-12-15T09:44:27.637Z,80
2017-12-15T09:45:37.606Z,80
2017-12-15T09:46:47.609Z,80
2017-12-15T09:47:57.304Z,80
2017-12-15T09:49:07.276Z,80
2017-12-15T09:50:16.965Z,80
2017-12-15T09:51:27.002Z,80
2017-12-15T09:52:36.718Z,80
2017-12-15T09:53:46.412Z,80
2017-12-15T09:54:56.363Z,80
2017-12-15T09:56:05.540Z,80
2017-12-15T09:57:15.482Z,80
2017-12-15T09:58:24.935Z,80
2017-12-15T09:59:34.897Z,80
2017-12-15T10:00:44.077Z,80
2017-12-15T10:01:54.128Z,80
2017-12-15T10:03:04.105Z,80
2017-12-15T10:04:13.577Z,85
2017-12-15T10:05:23.557Z,85
2017-12-15T10:06:33.760Z,90
2017-12-15T10:07:43.444Z,90
2017-12-15T10:08:53.395Z,90
2017-12-15T10:10:03.163Z,90
2017-12-15T10:11:12.871Z,85
2017-12-15T10:12:22.841Z,90
2017-12-15T10:13:32.791Z,90
2017-12-15T10:14:42.493Z,90
2017-12-15T10:15:51.933Z,90
2017-12-15T10:17:01.903Z,95
2017-12-15T10:18:11.878Z,100
2017-12-15T10:19:21.861Z,105
2017-12-15T10:20:31.288Z,115
2017-12-15T10:21:41.262Z,125
2017-12-15T10:22:50.727Z,130
2017-12-15T10:24:01.254Z,135
2017-12-15T10:25:11.667Z,135
2017-12-15T10:26:21.410Z,135
2017-12-15T10:27:30.902Z,140
2017-12-15T10:28:41.004Z,140
2017-12-15T10:29:50.891Z,140
2017-12-15T10:31:00.924Z,145
2017-12-15T10:32:10.879Z,145
2017-12-15T10:33:20.836Z,155
2017-12-15T10:34:30.290Z,155
2017-12-15T10:35:40.286Z,160
2017-12-15T10:36:49.474Z,160
2017-12-15T10:37:59.491Z,165
2017-12-15T10:39:09.473Z,165
2017-12-15T10:40:19.423Z,170
2017-12-15T10:41:29.361Z,175
2017-12-15T10:42:39.308Z,175
2017-12-15T10:43:48.763Z,175
2017-12-15T10:44:58.716Z,175
2017-12-15T10:46:08.702Z,170
2017-12-15T10:47:18.400Z,170
2017-12-15T10:48:28.376Z,170
2017-12-15T10:49:38.079Z,170
2017-12-15T10:50:48.085Z,170
2017-12-15T10:51:58.066Z,170
2017-12-15T10:53:08.065Z,175
2017-12-15T10:54:18.067Z,170
2017-12-15T10:55:27.823Z,175
2017-12-15T10:56:37.791Z,175
2017-12-15T10:57:47.762Z,175
2017-12-15T10:58:57.730Z,175
2017-12-15T11:00:07.676Z,170
2017-12-15T11:01:17.661Z,160
2017-12-15T11:02:27.569Z,175
2017-12-15T11:03:37.275Z,170
2017-12-15T11:04:46.959Z,165
2017-12-15T11:05:56.414Z,160
2017-12-15T11:07:06.112Z,160
2017-12-15T11:08:16.077Z,160
2017-12-15T11:09:25.788Z,150
2017-12-15T11:10:35.215Z,150
2017-12-15T11:11:44.927Z,155
2017-12-15T11:12:54.938Z,150
2017-12-15T11:14:04.952Z,150
2017-12-15T11:15:14.918Z,145
2017-12-15T11:16:24.614Z,150
2017-12-15T11:17:34.300Z,150
2017-12-15T11:18:43.986Z,145
2017-12-15T11:19:53.679Z,140
2017-12-15T11:21:03.116Z,145
2017-12-15T11:22:12.862Z,150
2017-12-15T11:23:22.581Z,150
2017-12-15T11:24:32.516Z,145
2017-12-15T11:25:42.225Z,140
2017-12-15T11:26:51.921Z,140
2017-12-15T11:28:01.113Z,135
2017-12-15T11:29:10.549Z,135
2017-12-15T11:30:20.256Z,125
2017-12-15T11:31:30.012Z,120
2017-12-15T11:32:39.711Z,125
2017-12-15T11:33:49.699Z,120
2017-12-15T11:34:59.389Z,125
2017-12-15T11:36:09.351Z,120
2017-12-15T11:37:19.310Z,115
2017-12-15T11:38:29.002Z,115
2017-12-15T11:39:38.698Z,110
2017-12-15T11:40:48.132Z,110
2017-12-15T11:41:58.109Z,105
2017-12-15T11:43:08.057Z,105
2017-12-15T11:44:18.011Z,105
2017-12-15T11:45:27.445Z,105
2017-12-15T11:46:37.427Z,95
2017-12-15T11:47:47.408Z,95
2017-12-15T11:48:57.525Z,100
2017-12-15T11:50:07.505Z,100
2017-12-15T11:51:16.622Z,85
2017-12-15T11:52:26.579Z,85
2017-12-15T11:53:36.355Z,85
2017-12-15T11:54:46.106Z,85
2017-12-15T11:55:55.813Z,90
2017-12-15T11:57:05.771Z,90
2017-12-15T11:58:15.228Z,85
2017-12-15T11:59:25.194Z,85
2017-12-15T12:00:35.223Z,90
2017-12-15T12:01:45.229Z,80
2017-12-15T12:02:55.187Z,80
2017-12-15T12:04:04.883Z,75
2017-12-15T12:05:14.341Z,70
2017-12-15T12:06:24.349Z,75
2017-12-15T12:07:34.059Z,75
2017-12-15T12:08:44.029Z,80
2017-12-15T12:09:53.984Z,70
2017-12-15T12:11:03.990Z,65
2017-12-15T12:12:14.039Z,65
2017-12-15T12:13:23.744Z,65
2017-12-15T12:14:33.427Z,60
2017-12-15T12:15:42.860Z,60
2017-12-15T12:16:52.553Z,60
2017-12-15T12:18:02.255Z,55
2017-12-15T12:19:11.944Z,55
2017-12-15T12:20:21.908Z,50
2017-12-15T12:21:31.853Z,50
2017-12-15T12:22:41.799Z,50
2017-12-15T12:23:51.761Z,55
2017-12-15T12:25:01.802Z,55
2017-12-15T12:26:11.785Z,45
2017-12-15T12:27:21.821Z,50
2017-12-15T12:28:31.762Z,50
2017-12-15T12:29:41.714Z,45
2017-12-15T12:30:50.883Z,50
2017-12-15T12:32:00.057Z,55
2017-12-15T12:33:09.520Z,55
2017-12-15T12:34:19.222Z,55
2017-12-15T12:35:29.175Z,55
2017-12-15T12:36:38.863Z,65
2017-12-15T12:37:48.569Z,55
2017-12-15T12:38:58.331Z,60
2017-12-15T12:40:08.292Z,60
2017-12-15T12:41:18.254Z,60
2017-12-15T12:42:28.266Z,60
2017-12-15T12:43:38.223Z,60
2017-12-15T12:44:47.706Z,55
2017-12-15T12:45:57.651Z,55
2017-12-15T12:47:07.326Z,65
2017-12-15T12:48:17.269Z,60
2017-12-15T12:49:27.218Z,70
2017-12-15T12:50:37.169Z,80
2017-12-15T12:51:47.126Z,90
2017-12-15T12:52:57.144Z,90
2017-12-15T12:54:07.115Z,80
2017-12-15T12:55:16.807Z,75
2017-12-15T12:56:26.505Z,85
2017-12-15T12:57:36.213Z,85
2017-12-15T12:58:45.659Z,85
2017-12-15T12:59:55.118Z,105
2017-12-15T13:01:04.809Z,90
2017-12-15T13:02:14.761Z,85
2017-12-15T13:03:24.496Z,95
2017-12-15T13:04:34.192Z,95
2017-12-15T13:05:43.891Z,100
2017-12-15T13:06:53.367Z,120
2017-12-15T13:08:03.072Z,100
2017-12-15T13:09:13.031Z,85
2017-12-15T13:10:23.007Z,80
2017-12-15T13:11:32.717Z,75
2017-12-15T13:12:42.409Z,70
2017-12-15T13:13:52.119Z,65
2017-12-15T13:15:01.832Z,65
2017-12-15T13:16:11.812Z,60
2017-12-15T13:17:21.810Z,50
2017-12-15T13:18:31.510Z,50
2017-12-15T13:19:41.197Z,50
2017-12-15T13:20:51.175Z,50
2017-12-15T13:22:00.918Z,60
2017-12-15T13:23:10.873Z,55
2017-12-15T13:24:20.824Z,55
2017-12-15T13:25:30.784Z,60
2017-12-15T13:26:40.480Z,55
2017-12-15T13:27:50.179Z,50
2017-12-15T13:29:00.145Z,50
2017-12-15T13:30:10.130Z,55
2017-12-15T13:31:19.813Z,55
2017-12-15T13:32:29.520Z,50
2017-12-15T13:33:39.488Z,50
2017-12-15T13:34:49.449Z,45
2017-12-15T13:35:59.152Z,45
2017-12-15T13:37:08.868Z,45
2017-12-15T13:38:18.827Z,45
2017-12-15T13:39:28.804Z,45
2017-12-15T13:40:38.497Z,35
2017-12-15T13:41:48.454Z,35
2017-12-15T13:42:57.907Z,30
2017-12-15T13:44:07.346Z,35
2017-12-15T13:45:17.351Z,30
2017-12-15T13:46:27.286Z,30
2017-12-15T13:47:37.016Z,25
2017-12-15T13:48:46.732Z,25
2017-12-15T13:49:56.417Z,30
2017-12-15T13:51:06.114Z,25
2017-12-15T13:52:15.570Z,25
2017-12-15T13:53:25.549Z,25
2017-12-15T13:54:35.262Z,25
2017-12-15T13:55:45.202Z,25
2017-12-15T13:56:54.892Z,25
2017-12-15T13:58:04.841Z,25
2017-12-15T13:59:14.792Z,25
2017-12-15T14:00:24.731Z,25
2017-12-15T14:01:34.698Z,25
2017-12-15T14:02:44.670Z,25
2017-12-15T14:03:54.607Z,25
2017-12-15T14:05:04.552Z,25
2017-12-15T14:06:14.332Z,25
2017-12-15T14:07:24.293Z,25
2017-12-15T14:08:34.245Z,20
2017-12-15T14:09:43.956Z,20
2017-12-15T14:10:53.382Z,20
2017-12-15T14:12:03.353Z,20
2017-12-15T14:13:13.314Z,20
2017-12-15T14:14:23.279Z,20
2017-12-15T14:15:33.024Z,20
2017-12-15T14:16:42.978Z,20
2017-12-15T14:17:52.672Z,20
2017-12-15T14:19:02.627Z,20
2017-12-15T14:20:12.320Z,20
2017-12-15T14:21:22.266Z,20
2017-12-15T14:22:32.206Z,25
2017-12-15T14:23:42.157Z,20
2017-12-15T14:24:52.169Z,20
2017-12-15T14:26:01.861Z,15
2017-12-15T14:27:11.818Z,20
2017-12-15T14:28:21.498Z,15
2017-12-15T14:29:31.182Z,15
2017-12-15T14:30:40.866Z,20
2017-12-15T14:31:50.560Z,20
2017-12-15T14:33:00.249Z,20
2017-12-15T14:34:09.728Z,20
2017-12-15T14:35:19.420Z,15
2017-12-15T14:36:29.366Z,20
2017-12-15T14:37:39.323Z,20
2017-12-15T14:38:49.262Z,15
2017-12-15T14:39:59.225Z,15
2017-12-15T14:41:09.177Z,15
2017-12-15T14:42:19.108Z,15
2017-12-15T14:43:29.061Z,15
2017-12-15T14:44:39.008Z,15
2017-12-15T14:45:48.958Z,15
2017-12-15T14:46:58.386Z,10
2017-12-15T14:48:08.340Z,5
2017-12-15T14:49:17.786Z,5
2017-12-15T14:50:27.478Z,5
2017-12-15T14:51:37.449Z,5
2017-12-15T14:52:47.397Z,5
2017-12-15T14:53:57.114Z,5
2017-12-15T14:55:07.083Z,0
2017-12-15T14:56:16.515Z,0
2017-12-15T14:57:25.948Z,0
2017-12-15T14:58:35.938Z,0
2017-12-15T14:59:45.880Z,0
2017-12-15T15:00:55.830Z,0
2017-12-15T15:02:05.529Z,0
2017-12-15T15:03:15.232Z,0
2017-12-15T15:04:24.657Z,0
2017-12-15T15:05:34.611Z,0
2017-12-15T15:06:44.042Z,0
2017-12-15T15:07:53.998Z,0
2017-12-15T15:09:03.968Z,0
2017-12-15T15:10:13.948Z,0
2017-12-15T15:11:23.892Z,0
2017-12-15T15:12:33.840Z,0
2017-12-15T15:13:43.527Z,0
2017-12-15T15:14:53.477Z,0
2017-12-15T15:16:02.910Z,0
2017-12-15T15:17:12.604Z,0
2017-12-15T15:18:22.556Z,0
2017-12-15T15:19:32.260Z,0
2017-12-15T15:20:42.015Z,0
2017-12-15T15:21:51.508Z,0
2017-12-15T15:23:00.959Z,0
2017-12-15T15:24:10.670Z,0
2017-12-15T15:25:20.366Z,0
2017-12-15T15:26:30.393Z,0
2017-12-15T15:27:40.118Z,0
2017-12-15T15:28:50.082Z,0
2017-12-15T15:30:00.036Z,0
2017-12-15T15:31:09.988Z,0
2017-12-15T15:32:19.982Z,0
2017-12-15T15:33:29.423Z,0
2017-12-15T15:34:38.850Z,0
2017-12-15T15:35:48.797Z,0
2017-12-15T15:36:58.238Z,0
2017-12-15T15:38:08.180Z,0
2017-12-15T15:39:18.155Z,0
2017-12-15T15:40:27.851Z,0
2017-12-15T15:41:37.793Z,0
2017-12-15T15:42:47.736Z,0
2017-12-15T15:43:57.693Z,0
2017-12-15T15:45:07.636Z,0
2017-12-15T15:46:17.367Z,0
2017-12-15T15:47:27.061Z,0
2017-12-15T15:48:37.021Z,0
2017-12-15T15:49:46.987Z,0
2017-12-15T15:50:56.959Z,0
2017-12-15T15:52:06.912Z,0
2017-12-15T15:53:16.343Z,0
2017-12-15T15:54:26.048Z,0
2017-12-15T15:55:36.058Z,0
2017-12-15T15:56:45.489Z,0
2017-12-15T15:57:55.437Z,0
2017-12-15T15:59:04.873Z,0
2017-12-15T16:00:14.565Z,0
2017-12-15T16:01:24.276Z,0
2017-12-15T16:02:34.249Z,0
2017-12-15T16:03:43.944Z,0
2017-12-15T16:04:53.637Z,0
2017-12-15T16:06:03.061Z,0
2017-12-15T16:07:13.008Z,0
2017-12-15T16:08:22.969Z,0
2017-12-15T16:09:32.408Z,0
2017-12-15T16:10:42.102Z,0
2017-12-15T16:11:52.068Z,0
2017-12-15T16:13:01.761Z,0
2017-12-15T16:14:11.212Z,0
2017-12-15T16:15:20.659Z,0
2017-12-15T16:16:30.355Z,0
2017-12-15T16:17:39.791Z,0
2017-12-15T16:18:49.225Z,0
2017-12-15T16:19:58.928Z,0
2017-12-15T16:21:08.651Z,0
2017-12-15T16:22:18.100Z,0
2017-12-15T16:23:28.070Z,0
2017-12-15T16:24:37.762Z,0
2017-12-15T16:25:47.718Z,0
2017-12-15T16:26:57.159Z,0
2017-12-15T16:28:06.849Z,0
2017-12-15T16:29:16.536Z,0
2017-12-15T16:30:26.227Z,0
2017-12-15T16:31:36.179Z,0
2017-12-15T16:32:46.120Z,0
2017-12-15T16:33:55.807Z,0
2017-12-15T16:35:05.506Z,0
2017-12-15T16:36:14.969Z,0
2017-12-15T16:37:24.921Z,0
2017-12-15T16:38:34.883Z,0
2017-12-15T16:39:44.587Z,0
2017-12-15T16:40:54.541Z,0
2017-12-15T16:42:04.481Z,0
2017-12-15T16:43:13.905Z,0
2017-12-15T16:44:23.401Z,0
2017-12-15T16:45:33.349Z,0
2017-12-15T16:46:43.305Z,0
2017-12-15T16:47:52.738Z,0
2017-12-15T16:49:02.464Z,0
2017-12-15T16:50:11.910Z,0